KMUI/MUI METAR and TAF weather

Enter ICAO airport designator
Station Type Date Time Source
KMUI METAR 2019/10/21 04:56 UTC NOAA

KMUI 210456Z AUTO 35003KT 10SM FEW016 10/09 A3001 RMK AO2 SLP167 T01000086 401210061


Station Type Date Time Source
KMUI Decoded METAR 2019/10/21 04:56 UTC NOAA

Muir Army Air Field / Indiantown, PA, United States (KMUI) 40-26N 076-34W
Oct 21, 2019 - 12:56 AM EDT / 2019.10.21 0456 UTC
Wind: from the N (350 degrees) at 3 MPH (3 KT):0
Visibility: 10 mile(s):0
Sky conditions: mostly clear
Temperature: 50.0 F (10.0 C)
Dew Point: 47.5 F (8.6 C)
Relative Humidity: 90%
Pressure (altimeter): 30.01 in. Hg (1016 hPa)
ob: KMUI 210456Z AUTO 35003KT 10SM FEW016 10/09 A3001 RMK AO2 SLP167 T01000086 401210061
cycle: 5

Station Type Date Time Source
KMUI TAF 2019/10/20 21:54 UTC NOAA

TAF TAF
AMD KMUI 202143Z 2021/2201 04006KT 8000 -DZ BR BKN015 OVC030 QNH2996INS
BECMG 2100/2101 34006KT 8000 BR BKN015 OVC030 QNH3000INS
BECMG 2106/2107 35006KT 8000 BR FEW008 SCT015 QNH3003INS
BECMG 2114/2115 36006KT 9999 NSW FEW015 SCT030 QNH3005INS
BECMG 2116/2117 11006KT 9999 FEW030 QNH3007INS TX15/2119Z TN07/2111Z LAST NO
AMDS AFT 2104 NEXT 2111

Example: see airport list